sensor_id;sensor_type;location;lat;lon;timestamp;P1;durP1;ratioP1;P2;durP2;ratioP2
19358;SDS011;9815;52.334;20.890;2023-04-01T00:01:03;38.47;;;19.97;;
19358;SDS011;9815;52.334;20.890;2023-04-01T00:03:33;34.80;;;19.43;;
19358;SDS011;9815;52.334;20.890;2023-04-01T00:06:08;39.40;;;20.20;;
19358;SDS011;9815;52.334;20.890;2023-04-01T00:08:38;38.67;;;19.60;;
19358;SDS011;9815;52.334;20.890;2023-04-01T00:11:07;36.83;;;19.77;;
19358;SDS011;9815;52.334;20.890;2023-04-01T00:13:35;37.43;;;19.80;;
19358;SDS011;9815;52.334;20.890;2023-04-01T00:16:04;35.13;;;18.77;;
19358;SDS011;9815;52.334;20.890;2023-04-01T00:18:46;36.33;;;19.17;;
19358;SDS011;9815;52.334;20.890;2023-04-01T00:21:14;36.13;;;19.77;;
19358;SDS011;9815;52.334;20.890;2023-04-01T00:23:43;40.17;;;19.73;;
19358;SDS011;9815;52.334;20.890;2023-04-01T00:26:12;37.27;;;19.30;;
19358;SDS011;9815;52.334;20.890;2023-04-01T00:28:41;38.50;;;19.83;;
19358;SDS011;9815;52.334;20.890;2023-04-01T00:31:09;41.93;;;20.60;;
19358;SDS011;9815;52.334;20.890;2023-04-01T00:33:38;39.03;;;21.53;;
19358;SDS011;9815;52.334;20.890;2023-04-01T00:36:07;37.03;;;19.37;;
19358;SDS011;9815;52.334;20.890;2023-04-01T00:38:36;39.07;;;20.57;;
19358;SDS011;9815;52.334;20.890;2023-04-01T00:41:05;37.13;;;20.37;;
19358;SDS011;9815;52.334;20.890;2023-04-01T00:43:35;37.03;;;20.50;;
19358;SDS011;9815;52.334;20.890;2023-04-01T00:46:03;42.93;;;21.40;;
19358;SDS011;9815;52.334;20.890;2023-04-01T00:48:32;41.27;;;20.67;;
19358;SDS011;9815;52.334;20.890;2023-04-01T00:51:02;40.30;;;20.80;;
19358;SDS011;9815;52.334;20.890;2023-04-01T00:53:34;36.83;;;20.87;;
19358;SDS011;9815;52.334;20.890;2023-04-01T00:56:07;41.87;;;21.63;;
19358;SDS011;9815;52.334;20.890;2023-04-01T00:58:41;43.57;;;21.43;;
19358;SDS011;9815;52.334;20.890;2023-04-01T01:01:11;42.40;;;21.67;;
19358;SDS011;9815;52.334;20.890;2023-04-01T01:03:39;39.67;;;21.33;;
19358;SDS011;9815;52.334;20.890;2023-04-01T01:06:08;40.47;;;21.50;;
19358;SDS011;9815;52.334;20.890;2023-04-01T01:08:47;42.90;;;20.83;;
19358;SDS011;9815;52.334;20.890;2023-04-01T01:11:29;42.53;;;21.67;;
19358;SDS011;9815;52.334;20.890;2023-04-01T01:14:18;51.37;;;21.67;;
19358;SDS011;9815;52.334;20.890;2023-04-01T01:16:58;40.30;;;21.20;;
19358;SDS011;9815;52.334;20.890;2023-04-01T01:19:39;44.97;;;23.33;;
19358;SDS011;9815;52.334;20.890;2023-04-01T01:22:42;53.63;;;22.60;;
19358;SDS011;9815;52.334;20.890;2023-04-01T01:25:28;41.63;;;21.80;;
19358;SDS011;9815;52.334;20.890;2023-04-01T01:28:12;42.83;;;21.73;;
19358;SDS011;9815;52.334;20.890;2023-04-01T01:30:54;42.03;;;21.97;;
19358;SDS011;9815;52.334;20.890;2023-04-01T01:33:35;47.80;;;23.17;;
19358;SDS011;9815;52.334;20.890;2023-04-01T01:36:14;45.43;;;23.20;;
19358;SDS011;9815;52.334;20.890;2023-04-01T01:38:45;48.03;;;22.53;;
19358;SDS011;9815;52.334;20.890;2023-04-01T01:41:15;46.27;;;23.20;;
19358;SDS011;9815;52.334;20.890;2023-04-01T01:43:46;48.40;;;23.77;;
19358;SDS011;9815;52.334;20.890;2023-04-01T01:46:19;44.03;;;22.93;;
19358;SDS011;9815;52.334;20.890;2023-04-01T01:48:50;46.80;;;23.93;;
19358;SDS011;9815;52.334;20.890;2023-04-01T01:51:21;43.13;;;21.97;;
19358;SDS011;9815;52.334;20.890;2023-04-01T01:53:50;49.70;;;22.20;;
19358;SDS011;9815;52.334;20.890;2023-04-01T01:56:19;45.50;;;22.87;;
19358;SDS011;9815;52.334;20.890;2023-04-01T01:58:51;47.80;;;22.00;;
19358;SDS011;9815;52.334;20.890;2023-04-01T02:01:23;48.40;;;23.37;;
19358;SDS011;9815;52.334;20.890;2023-04-01T02:03:56;43.73;;;21.70;;
19358;SDS011;9815;52.334;20.890;2023-04-01T02:06:29;47.10;;;22.57;;
19358;SDS011;9815;52.334;20.890;2023-04-01T02:09:01;49.33;;;22.60;;
19358;SDS011;9815;52.334;20.890;2023-04-01T02:11:32;48.63;;;23.07;;
19358;SDS011;9815;52.334;20.890;2023-04-01T02:14:04;47.17;;;23.73;;
19358;SDS011;9815;52.334;20.890;2023-04-01T02:16:38;50.10;;;24.23;;
19358;SDS011;9815;52.334;20.890;2023-04-01T02:19:10;56.33;;;26.60;;
19358;SDS011;9815;52.334;20.890;2023-04-01T02:21:42;57.87;;;27.03;;
19358;SDS011;9815;52.334;20.890;2023-04-01T02:24:12;59.70;;;27.37;;
19358;SDS011;9815;52.334;20.890;2023-04-01T02:26:41;58.40;;;26.70;;
19358;SDS011;9815;52.334;20.890;2023-04-01T02:29:12;54.60;;;28.10;;
19358;SDS011;9815;52.334;20.890;2023-04-01T02:31:40;65.40;;;29.30;;
19358;SDS011;9815;52.334;20.890;2023-04-01T02:34:10;61.00;;;28.20;;
19358;SDS011;9815;52.334;20.890;2023-04-01T02:36:38;59.43;;;27.73;;
19358;SDS011;9815;52.334;20.890;2023-04-01T02:39:08;60.47;;;28.43;;
19358;SDS011;9815;52.334;20.890;2023-04-01T02:41:39;60.37;;;29.80;;
19358;SDS011;9815;52.334;20.890;2023-04-01T02:44:08;63.13;;;29.13;;
19358;SDS011;9815;52.334;20.890;2023-04-01T02:46:36;64.03;;;29.33;;
19358;SDS011;9815;52.334;20.890;2023-04-01T02:49:05;61.80;;;27.43;;
19358;SDS011;9815;52.334;20.890;2023-04-01T02:51:33;59.77;;;28.17;;
19358;SDS011;9815;52.334;20.890;2023-04-01T02:54:01;54.03;;;27.10;;
19358;SDS011;9815;52.334;20.890;2023-04-01T02:56:30;57.93;;;26.70;;
19358;SDS011;9815;52.334;20.890;2023-04-01T02:58:58;56.20;;;25.90;;
19358;SDS011;9815;52.334;20.890;2023-04-01T03:01:26;52.83;;;25.60;;
19358;SDS011;9815;52.334;20.890;2023-04-01T03:03:54;57.53;;;25.53;;
19358;SDS011;9815;52.334;20.890;2023-04-01T03:06:22;57.60;;;26.23;;
19358;SDS011;9815;52.334;20.890;2023-04-01T03:08:50;61.00;;;26.57;;
19358;SDS011;9815;52.334;20.890;2023-04-01T03:11:18;58.37;;;26.63;;
19358;SDS011;9815;52.334;20.890;2023-04-01T03:13:48;60.27;;;27.27;;
19358;SDS011;9815;52.334;20.890;2023-04-01T03:16:16;58.77;;;26.03;;
19358;SDS011;9815;52.334;20.890;2023-04-01T03:18:44;55.50;;;26.00;;
19358;SDS011;9815;52.334;20.890;2023-04-01T03:21:13;56.93;;;25.27;;
19358;SDS011;9815;52.334;20.890;2023-04-01T03:23:43;55.60;;;26.50;;
19358;SDS011;9815;52.334;20.890;2023-04-01T03:26:11;55.87;;;25.93;;
19358;SDS011;9815;52.334;20.890;2023-04-01T03:28:40;58.77;;;26.80;;
19358;SDS011;9815;52.334;20.890;2023-04-01T03:31:10;52.63;;;25.13;;
19358;SDS011;9815;52.334;20.890;2023-04-01T03:33:45;56.97;;;25.63;;
19358;SDS011;9815;52.334;20.890;2023-04-01T03:36:13;53.20;;;26.47;;
19358;SDS011;9815;52.334;20.890;2023-04-01T03:38:41;61.17;;;26.20;;
19358;SDS011;9815;52.334;20.890;2023-04-01T03:41:13;62.90;;;28.83;;
19358;SDS011;9815;52.334;20.890;2023-04-01T03:43:42;66.47;;;28.30;;
19358;SDS011;9815;52.334;20.890;2023-04-01T03:46:16;67.10;;;30.07;;
19358;SDS011;9815;52.334;20.890;2023-04-01T03:48:45;69.63;;;31.03;;
19358;SDS011;9815;52.334;20.890;2023-04-01T03:51:13;73.30;;;31.73;;
19358;SDS011;9815;52.334;20.890;2023-04-01T03:53:41;65.47;;;30.53;;
19358;SDS011;9815;52.334;20.890;2023-04-01T03:56:09;66.93;;;31.67;;
19358;SDS011;9815;52.334;20.890;2023-04-01T03:58:38;73.57;;;31.50;;
19358;SDS011;9815;52.334;20.890;2023-04-01T04:01:16;65.63;;;30.47;;
19358;SDS011;9815;52.334;20.890;2023-04-01T04:03:49;64.87;;;29.87;;
19358;SDS011;9815;52.334;20.890;2023-04-01T04:06:18;65.63;;;30.63;;
19358;SDS011;9815;52.334;20.890;2023-04-01T04:08:47;66.50;;;30.67;;
19358;SDS011;9815;52.334;20.890;2023-04-01T04:11:16;58.63;;;27.17;;
19358;SDS011;9815;52.334;20.890;2023-04-01T04:13:44;53.70;;;26.37;;
19358;SDS011;9815;52.334;20.890;2023-04-01T04:16:16;50.37;;;25.93;;
19358;SDS011;9815;52.334;20.890;2023-04-01T04:18:49;48.07;;;24.87;;
19358;SDS011;9815;52.334;20.890;2023-04-01T04:21:18;49.63;;;24.07;;
19358;SDS011;9815;52.334;20.890;2023-04-01T04:23:46;51.17;;;24.13;;
19358;SDS011;9815;52.334;20.890;2023-04-01T04:26:16;47.70;;;23.43;;
19358;SDS011;9815;52.334;20.890;2023-04-01T04:28:56;45.30;;;22.13;;
19358;SDS011;9815;52.334;20.890;2023-04-01T04:31:26;45.97;;;22.53;;
19358;SDS011;9815;52.334;20.890;2023-04-01T04:33:58;44.70;;;23.20;;
19358;SDS011;9815;52.334;20.890;2023-04-01T04:36:26;44.20;;;22.67;;
19358;SDS011;9815;52.334;20.890;2023-04-01T04:38:55;43.23;;;22.40;;
19358;SDS011;9815;52.334;20.890;2023-04-01T04:41:24;41.30;;;21.83;;
19358;SDS011;9815;52.334;20.890;2023-04-01T04:43:53;47.00;;;22.50;;
19358;SDS011;9815;52.334;20.890;2023-04-01T04:46:23;43.27;;;21.33;;
19358;SDS011;9815;52.334;20.890;2023-04-01T04:49:00;41.03;;;21.07;;
19358;SDS011;9815;52.334;20.890;2023-04-01T04:51:28;43.33;;;21.57;;
19358;SDS011;9815;52.334;20.890;2023-04-01T04:53:56;38.80;;;20.73;;
19358;SDS011;9815;52.334;20.890;2023-04-01T04:56:38;43.20;;;20.33;;
19358;SDS011;9815;52.334;20.890;2023-04-01T04:59:07;40.80;;;21.73;;
19358;SDS011;9815;52.334;20.890;2023-04-01T05:01:49;45.43;;;21.10;;
19358;SDS011;9815;52.334;20.890;2023-04-01T05:04:18;35.73;;;19.20;;
19358;SDS011;9815;52.334;20.890;2023-04-01T05:06:46;37.60;;;19.40;;
19358;SDS011;9815;52.334;20.890;2023-04-01T05:09:16;35.10;;;19.10;;
19358;SDS011;9815;52.334;20.890;2023-04-01T05:11:43;40.40;;;19.47;;
19358;SDS011;9815;52.334;20.890;2023-04-01T05:14:13;37.93;;;21.00;;
19358;SDS011;9815;52.334;20.890;2023-04-01T05:16:46;32.97;;;18.33;;
19358;SDS011;9815;52.334;20.890;2023-04-01T05:19:17;39.43;;;20.13;;
19358;SDS011;9815;52.334;20.890;2023-04-01T05:21:45;45.03;;;23.43;;
19358;SDS011;9815;52.334;20.890;2023-04-01T05:24:13;49.70;;;24.10;;
19358;SDS011;9815;52.334;20.890;2023-04-01T05:26:41;45.27;;;23.23;;
19358;SDS011;9815;52.334;20.890;2023-04-01T05:29:09;39.77;;;21.00;;
19358;SDS011;9815;52.334;20.890;2023-04-01T05:31:38;38.77;;;20.53;;
19358;SDS011;9815;52.334;20.890;2023-04-01T05:34:06;37.67;;;20.67;;
19358;SDS011;9815;52.334;20.890;2023-04-01T05:36:36;42.57;;;21.70;;
19358;SDS011;9815;52.334;20.890;2023-04-01T05:39:04;34.97;;;18.93;;
19358;SDS011;9815;52.334;20.890;2023-04-01T05:41:34;38.27;;;20.60;;
19358;SDS011;9815;52.334;20.890;2023-04-01T05:44:02;41.40;;;21.90;;
19358;SDS011;9815;52.334;20.890;2023-04-01T05:46:39;45.93;;;24.00;;
19358;SDS011;9815;52.334;20.890;2023-04-01T05:49:17;34.57;;;17.33;;
19358;SDS011;9815;52.334;20.890;2023-04-01T05:51:46;31.87;;;18.57;;
19358;SDS011;9815;52.334;20.890;2023-04-01T05:54:15;32.57;;;18.27;;
19358;SDS011;9815;52.334;20.890;2023-04-01T05:56:44;33.33;;;18.40;;
19358;SDS011;9815;52.334;20.890;2023-04-01T05:59:14;28.30;;;15.80;;
19358;SDS011;9815;52.334;20.890;2023-04-01T06:01:42;30.67;;;17.67;;
19358;SDS011;9815;52.334;20.890;2023-04-01T06:04:12;28.07;;;16.50;;
19358;SDS011;9815;52.334;20.890;2023-04-01T06:06:42;27.60;;;15.63;;
19358;SDS011;9815;52.334;20.890;2023-04-01T06:09:14;28.90;;;16.20;;
19358;SDS011;9815;52.334;20.890;2023-04-01T06:12:00;27.90;;;15.17;;
19358;SDS011;9815;52.334;20.890;2023-04-01T06:14:52;25.20;;;14.80;;
19358;SDS011;9815;52.334;20.890;2023-04-01T06:17:35;24.77;;;14.70;;
19358;SDS011;9815;52.334;20.890;2023-04-01T06:20:19;23.73;;;13.97;;
19358;SDS011;9815;52.334;20.890;2023-04-01T06:22:56;21.27;;;12.43;;
19358;SDS011;9815;52.334;20.890;2023-04-01T06:25:52;23.20;;;12.27;;
19358;SDS011;9815;52.334;20.890;2023-04-01T06:28:38;17.70;;;11.50;;
19358;SDS011;9815;52.334;20.890;2023-04-01T06:31:18;18.00;;;11.07;;
19358;SDS011;9815;52.334;20.890;2023-04-01T06:33:57;19.63;;;11.17;;
19358;SDS011;9815;52.334;20.890;2023-04-01T06:36:52;18.53;;;10.80;;
19358;SDS011;9815;52.334;20.890;2023-04-01T06:39:32;18.23;;;10.53;;
19358;SDS011;9815;52.334;20.890;2023-04-01T06:42:17;14.40;;;9.80;;
19358;SDS011;9815;52.334;20.890;2023-04-01T06:44:56;13.27;;;9.30;;
19358;SDS011;9815;52.334;20.890;2023-04-01T06:47:55;13.27;;;8.93;;
19358;SDS011;9815;52.334;20.890;2023-04-01T06:50:55;14.47;;;8.87;;
19358;SDS011;9815;52.334;20.890;2023-04-01T06:53:56;13.50;;;8.43;;
19358;SDS011;9815;52.334;20.890;2023-04-01T06:56:58;14.90;;;8.93;;
19358;SDS011;9815;52.334;20.890;2023-04-01T06:59:33;13.17;;;9.13;;
19358;SDS011;9815;52.334;20.890;2023-04-01T07:02:06;12.20;;;7.67;;
19358;SDS011;9815;52.334;20.890;2023-04-01T07:04:46;11.73;;;7.93;;
19358;SDS011;9815;52.334;20.890;2023-04-01T07:07:19;13.13;;;7.97;;
19358;SDS011;9815;52.334;20.890;2023-04-01T07:09:59;10.07;;;7.03;;
19358;SDS011;9815;52.334;20.890;2023-04-01T07:12:32;9.27;;;6.00;;
19358;SDS011;9815;52.334;20.890;2023-04-01T07:15:42;11.60;;;6.73;;
19358;SDS011;9815;52.334;20.890;2023-04-01T07:18:14;10.67;;;5.90;;
19358;SDS011;9815;52.334;20.890;2023-04-01T07:20:45;9.63;;;5.47;;
19358;SDS011;9815;52.334;20.890;2023-04-01T07:23:15;8.70;;;5.87;;
19358;SDS011;9815;52.334;20.890;2023-04-01T07:26:14;8.73;;;4.90;;
19358;SDS011;9815;52.334;20.890;2023-04-01T07:29:08;7.50;;;5.10;;
19358;SDS011;9815;52.334;20.890;2023-04-01T07:31:55;7.50;;;5.17;;
19358;SDS011;9815;52.334;20.890;2023-04-01T07:34:54;9.67;;;5.40;;
19358;SDS011;9815;52.334;20.890;2023-04-01T07:37:30;10.67;;;6.80;;
19358;SDS011;9815;52.334;20.890;2023-04-01T07:40:07;12.17;;;7.43;;
19358;SDS011;9815;52.334;20.890;2023-04-01T07:42:48;15.67;;;8.83;;
19358;SDS011;9815;52.334;20.890;2023-04-01T07:45:29;17.53;;;10.43;;
19358;SDS011;9815;52.334;20.890;2023-04-01T07:48:09;15.63;;;9.77;;
19358;SDS011;9815;52.334;20.890;2023-04-01T07:50:47;14.30;;;9.60;;
19358;SDS011;9815;52.334;20.890;2023-04-01T07:53:22;15.77;;;9.83;;
19358;SDS011;9815;52.334;20.890;2023-04-01T07:55:59;15.73;;;10.10;;
19358;SDS011;9815;52.334;20.890;2023-04-01T07:58:39;15.77;;;10.17;;
19358;SDS011;9815;52.334;20.890;2023-04-01T08:01:39;15.03;;;10.07;;
19358;SDS011;9815;52.334;20.890;2023-04-01T08:04:18;16.03;;;10.50;;
19358;SDS011;9815;52.334;20.890;2023-04-01T08:07:02;15.97;;;11.23;;
19358;SDS011;9815;52.334;20.890;2023-04-01T08:09:43;19.70;;;11.20;;
19358;SDS011;9815;52.334;20.890;2023-04-01T08:12:36;19.10;;;12.97;;
19358;SDS011;9815;52.334;20.890;2023-04-01T08:15:44;18.97;;;13.00;;
19358;SDS011;9815;52.334;20.890;2023-04-01T08:18:35;22.23;;;13.23;;
19358;SDS011;9815;52.334;20.890;2023-04-01T08:21:12;18.80;;;13.43;;
19358;SDS011;9815;52.334;20.890;2023-04-01T08:23:45;20.33;;;12.73;;
19358;SDS011;9815;52.334;20.890;2023-04-01T08:26:19;17.53;;;12.17;;
19358;SDS011;9815;52.334;20.890;2023-04-01T08:28:54;17.80;;;10.37;;
19358;SDS011;9815;52.334;20.890;2023-04-01T08:31:29;18.87;;;11.23;;
19358;SDS011;9815;52.334;20.890;2023-04-01T08:34:01;17.27;;;11.97;;
19358;SDS011;9815;52.334;20.890;2023-04-01T08:36:34;17.10;;;11.73;;
19358;SDS011;9815;52.334;20.890;2023-04-01T08:39:12;17.50;;;12.23;;
19358;SDS011;9815;52.334;20.890;2023-04-01T08:41:54;18.07;;;12.23;;
19358;SDS011;9815;52.334;20.890;2023-04-01T08:47:56;25.67;;;15.43;;
19358;SDS011;9815;52.334;20.890;2023-04-01T08:50:46;24.03;;;15.10;;
19358;SDS011;9815;52.334;20.890;2023-04-01T08:53:37;25.77;;;15.53;;
19358;SDS011;9815;52.334;20.890;2023-04-01T08:56:20;24.33;;;14.87;;
19358;SDS011;9815;52.334;20.890;2023-04-01T08:58:59;24.93;;;14.87;;
19358;SDS011;9815;52.334;20.890;2023-04-01T09:01:50;22.80;;;15.07;;
19358;SDS011;9815;52.334;20.890;2023-04-01T09:05:01;21.60;;;13.77;;
19358;SDS011;9815;52.334;20.890;2023-04-01T09:07:49;21.07;;;13.23;;
19358;SDS011;9815;52.334;20.890;2023-04-01T09:14:00;20.43;;;9.77;;
19358;SDS011;9815;52.334;20.890;2023-04-01T09:19:42;13.20;;;9.40;;
19358;SDS011;9815;52.334;20.890;2023-04-01T09:22:25;15.30;;;9.90;;
19358;SDS011;9815;52.334;20.890;2023-04-01T09:25:24;17.30;;;11.17;;
19358;SDS011;9815;52.334;20.890;2023-04-01T09:28:22;16.40;;;10.50;;
19358;SDS011;9815;52.334;20.890;2023-04-01T09:31:17;17.00;;;10.03;;
19358;SDS011;9815;52.334;20.890;2023-04-01T09:34:51;16.63;;;9.90;;
19358;SDS011;9815;52.334;20.890;2023-04-01T09:37:29;13.40;;;7.63;;
19358;SDS011;9815;52.334;20.890;2023-04-01T09:40:16;8.33;;;5.63;;
19358;SDS011;9815;52.334;20.890;2023-04-01T09:43:02;10.33;;;5.63;;
19358;SDS011;9815;52.334;20.890;2023-04-01T09:45:47;8.53;;;5.63;;
19358;SDS011;9815;52.334;20.890;2023-04-01T09:48:33;6.07;;;3.90;;
19358;SDS011;9815;52.334;20.890;2023-04-01T09:51:12;4.23;;;3.20;;
19358;SDS011;9815;52.334;20.890;2023-04-01T09:53:55;4.57;;;3.43;;
19358;SDS011;9815;52.334;20.890;2023-04-01T09:56:52;5.27;;;3.67;;
19358;SDS011;9815;52.334;20.890;2023-04-01T10:00:22;8.23;;;4.00;;
19358;SDS011;9815;52.334;20.890;2023-04-01T10:09:48;7.13;;;4.87;;
19358;SDS011;9815;52.334;20.890;2023-04-01T10:13:11;7.27;;;4.83;;
19358;SDS011;9815;52.334;20.890;2023-04-01T10:16:21;7.10;;;4.70;;
19358;SDS011;9815;52.334;20.890;2023-04-01T10:25:30;5.17;;;3.53;;
19358;SDS011;9815;52.334;20.890;2023-04-01T10:32:09;7.23;;;3.77;;
19358;SDS011;9815;52.334;20.890;2023-04-01T10:35:09;5.87;;;4.00;;
19358;SDS011;9815;52.334;20.890;2023-04-01T10:38:06;7.03;;;3.90;;
19358;SDS011;9815;52.334;20.890;2023-04-01T10:41:11;4.60;;;2.70;;
19358;SDS011;9815;52.334;20.890;2023-04-01T10:50:53;3.37;;;2.33;;
19358;SDS011;9815;52.334;20.890;2023-04-01T10:57:01;2.97;;;2.50;;
19358;SDS011;9815;52.334;20.890;2023-04-01T11:13:08;4.90;;;3.67;;
19358;SDS011;9815;52.334;20.890;2023-04-01T11:16:27;5.77;;;3.10;;
19358;SDS011;9815;52.334;20.890;2023-04-01T11:19:19;4.27;;;3.20;;
19358;SDS011;9815;52.334;20.890;2023-04-01T11:22:17;4.60;;;3.43;;
19358;SDS011;9815;52.334;20.890;2023-04-01T11:25:11;3.60;;;2.20;;
19358;SDS011;9815;52.334;20.890;2023-04-01T11:28:18;3.20;;;2.60;;
19358;SDS011;9815;52.334;20.890;2023-04-01T11:31:10;4.63;;;2.23;;
19358;SDS011;9815;52.334;20.890;2023-04-01T11:34:00;7.73;;;3.47;;
19358;SDS011;9815;52.334;20.890;2023-04-01T11:36:41;7.13;;;2.93;;
19358;SDS011;9815;52.334;20.890;2023-04-01T11:39:24;4.07;;;2.37;;
19358;SDS011;9815;52.334;20.890;2023-04-01T11:42:06;2.20;;;1.70;;
19358;SDS011;9815;52.334;20.890;2023-04-01T11:45:08;2.83;;;1.67;;
19358;SDS011;9815;52.334;20.890;2023-04-01T11:47:47;3.17;;;2.43;;
19358;SDS011;9815;52.334;20.890;2023-04-01T11:50:42;2.63;;;1.60;;
19358;SDS011;9815;52.334;20.890;2023-04-01T11:53:26;2.67;;;1.77;;
19358;SDS011;9815;52.334;20.890;2023-04-01T11:56:09;2.57;;;1.80;;
19358;SDS011;9815;52.334;20.890;2023-04-01T11:59:14;5.17;;;1.80;;
19358;SDS011;9815;52.334;20.890;2023-04-01T12:02:05;3.23;;;1.63;;
19358;SDS011;9815;52.334;20.890;2023-04-01T12:04:42;3.23;;;1.90;;
19358;SDS011;9815;52.334;20.890;2023-04-01T12:07:40;2.33;;;1.83;;
19358;SDS011;9815;52.334;20.890;2023-04-01T12:10:21;3.70;;;2.17;;
19358;SDS011;9815;52.334;20.890;2023-04-01T12:12:54;4.30;;;2.27;;
19358;SDS011;9815;52.334;20.890;2023-04-01T12:15:32;3.27;;;1.90;;
19358;SDS011;9815;52.334;20.890;2023-04-01T12:18:14;3.17;;;2.17;;
19358;SDS011;9815;52.334;20.890;2023-04-01T12:20:49;2.90;;;2.10;;
19358;SDS011;9815;52.334;20.890;2023-04-01T12:23:30;2.17;;;1.83;;
19358;SDS011;9815;52.334;20.890;2023-04-01T12:26:21;2.10;;;1.63;;
19358;SDS011;9815;52.334;20.890;2023-04-01T12:29:07;2.67;;;1.93;;
19358;SDS011;9815;52.334;20.890;2023-04-01T12:31:47;4.20;;;2.20;;
19358;SDS011;9815;52.334;20.890;2023-04-01T12:37:28;3.80;;;2.73;;
19358;SDS011;9815;52.334;20.890;2023-04-01T12:43:12;4.57;;;3.07;;
19358;SDS011;9815;52.334;20.890;2023-04-01T12:45:54;3.97;;;3.17;;
19358;SDS011;9815;52.334;20.890;2023-04-01T12:48:32;4.60;;;2.73;;
19358;SDS011;9815;52.334;20.890;2023-04-01T12:51:24;3.70;;;2.33;;
19358;SDS011;9815;52.334;20.890;2023-04-01T12:54:10;3.43;;;2.20;;
19358;SDS011;9815;52.334;20.890;2023-04-01T12:56:54;3.00;;;2.20;;
19358;SDS011;9815;52.334;20.890;2023-04-01T12:59:46;5.50;;;2.00;;
19358;SDS011;9815;52.334;20.890;2023-04-01T13:02:29;3.17;;;2.10;;
19358;SDS011;9815;52.334;20.890;2023-04-01T13:08:19;1.90;;;1.70;;
19358;SDS011;9815;52.334;20.890;2023-04-01T13:11:08;3.37;;;2.00;;
19358;SDS011;9815;52.334;20.890;2023-04-01T13:16:57;2.53;;;1.90;;
19358;SDS011;9815;52.334;20.890;2023-04-01T13:19:34;2.20;;;1.90;;
19358;SDS011;9815;52.334;20.890;2023-04-01T13:22:13;2.93;;;2.10;;
19358;SDS011;9815;52.334;20.890;2023-04-01T13:24:49;4.07;;;2.40;;
19358;SDS011;9815;52.334;20.890;2023-04-01T13:27:21;3.90;;;2.80;;
19358;SDS011;9815;52.334;20.890;2023-04-01T13:30:00;6.70;;;3.17;;
19358;SDS011;9815;52.334;20.890;2023-04-01T13:32:40;4.53;;;3.10;;
19358;SDS011;9815;52.334;20.890;2023-04-01T13:35:17;5.70;;;3.60;;
19358;SDS011;9815;52.334;20.890;2023-04-01T13:37:54;7.63;;;3.90;;
19358;SDS011;9815;52.334;20.890;2023-04-01T13:40:41;5.03;;;3.50;;
19358;SDS011;9815;52.334;20.890;2023-04-01T13:43:29;7.67;;;4.30;;
19358;SDS011;9815;52.334;20.890;2023-04-01T13:46:07;11.20;;;6.20;;
19358;SDS011;9815;52.334;20.890;2023-04-01T13:48:56;8.27;;;4.47;;
19358;SDS011;9815;52.334;20.890;2023-04-01T13:51:40;5.50;;;4.00;;
19358;SDS011;9815;52.334;20.890;2023-04-01T13:54:38;6.90;;;3.50;;
19358;SDS011;9815;52.334;20.890;2023-04-01T13:57:20;5.27;;;3.77;;
19358;SDS011;9815;52.334;20.890;2023-04-01T14:02:51;5.97;;;3.67;;
19358;SDS011;9815;52.334;20.890;2023-04-01T14:05:47;5.63;;;3.53;;
19358;SDS011;9815;52.334;20.890;2023-04-01T14:08:26;7.17;;;4.00;;
19358;SDS011;9815;52.334;20.890;2023-04-01T14:11:13;7.90;;;4.10;;
19358;SDS011;9815;52.334;20.890;2023-04-01T14:13:50;5.83;;;3.80;;
19358;SDS011;9815;52.334;20.890;2023-04-01T14:19:31;4.07;;;3.30;;
19358;SDS011;9815;52.334;20.890;2023-04-01T14:22:13;5.87;;;3.93;;
19358;SDS011;9815;52.334;20.890;2023-04-01T14:24:56;5.07;;;3.77;;
19358;SDS011;9815;52.334;20.890;2023-04-01T14:27:53;6.20;;;4.10;;
19358;SDS011;9815;52.334;20.890;2023-04-01T14:30:37;6.97;;;4.33;;
19358;SDS011;9815;52.334;20.890;2023-04-01T14:33:20;5.40;;;3.87;;
19358;SDS011;9815;52.334;20.890;2023-04-01T14:36:07;6.50;;;4.70;;
19358;SDS011;9815;52.334;20.890;2023-04-01T14:38:58;10.67;;;5.80;;
19358;SDS011;9815;52.334;20.890;2023-04-01T14:41:38;8.67;;;5.20;;
19358;SDS011;9815;52.334;20.890;2023-04-01T14:47:29;7.77;;;4.47;;
19358;SDS011;9815;52.334;20.890;2023-04-01T14:50:11;7.77;;;4.53;;
19358;SDS011;9815;52.334;20.890;2023-04-01T14:52:42;6.33;;;4.63;;
19358;SDS011;9815;52.334;20.890;2023-04-01T14:55:19;7.43;;;4.70;;
19358;SDS011;9815;52.334;20.890;2023-04-01T14:58:04;8.27;;;5.13;;
19358;SDS011;9815;52.334;20.890;2023-04-01T15:00:52;8.13;;;5.50;;
19358;SDS011;9815;52.334;20.890;2023-04-01T15:03:30;7.80;;;5.10;;
19358;SDS011;9815;52.334;20.890;2023-04-01T15:06:17;7.60;;;5.50;;
19358;SDS011;9815;52.334;20.890;2023-04-01T15:09:08;7.20;;;4.97;;
19358;SDS011;9815;52.334;20.890;2023-04-01T15:11:48;9.80;;;5.50;;
19358;SDS011;9815;52.334;20.890;2023-04-01T15:14:44;14.57;;;6.77;;
19358;SDS011;9815;52.334;20.890;2023-04-01T15:17:34;8.67;;;5.27;;
19358;SDS011;9815;52.334;20.890;2023-04-01T15:23:16;7.63;;;4.70;;
19358;SDS011;9815;52.334;20.890;2023-04-01T15:26:05;7.37;;;4.53;;
19358;SDS011;9815;52.334;20.890;2023-04-01T15:29:04;7.00;;;4.40;;
19358;SDS011;9815;52.334;20.890;2023-04-01T15:31:43;6.93;;;4.63;;
19358;SDS011;9815;52.334;20.890;2023-04-01T15:34:24;6.20;;;4.40;;
19358;SDS011;9815;52.334;20.890;2023-04-01T15:37:02;7.17;;;4.60;;
19358;SDS011;9815;52.334;20.890;2023-04-01T15:39:40;7.70;;;4.57;;
19358;SDS011;9815;52.334;20.890;2023-04-01T15:42:19;6.60;;;4.63;;
19358;SDS011;9815;52.334;20.890;2023-04-01T15:45:02;8.70;;;4.90;;
19358;SDS011;9815;52.334;20.890;2023-04-01T15:47:37;10.23;;;5.63;;
19358;SDS011;9815;52.334;20.890;2023-04-01T15:53:13;11.37;;;6.50;;
19358;SDS011;9815;52.334;20.890;2023-04-01T15:55:53;7.13;;;5.00;;
19358;SDS011;9815;52.334;20.890;2023-04-01T15:58:31;7.80;;;5.03;;
19358;SDS011;9815;52.334;20.890;2023-04-01T16:01:14;8.17;;;4.73;;
19358;SDS011;9815;52.334;20.890;2023-04-01T16:03:54;6.23;;;3.80;;
19358;SDS011;9815;52.334;20.890;2023-04-01T16:06:41;9.17;;;4.30;;
19358;SDS011;9815;52.334;20.890;2023-04-01T16:09:25;5.93;;;3.77;;
19358;SDS011;9815;52.334;20.890;2023-04-01T16:12:07;9.13;;;4.47;;
19358;SDS011;9815;52.334;20.890;2023-04-01T16:14:44;4.43;;;3.40;;
19358;SDS011;9815;52.334;20.890;2023-04-01T16:17:29;4.20;;;3.30;;
19358;SDS011;9815;52.334;20.890;2023-04-01T16:20:12;8.67;;;5.50;;
19358;SDS011;9815;52.334;20.890;2023-04-01T16:22:48;5.80;;;3.70;;
19358;SDS011;9815;52.334;20.890;2023-04-01T16:25:26;6.63;;;4.23;;
19358;SDS011;9815;52.334;20.890;2023-04-01T16:28:12;9.63;;;4.53;;
19358;SDS011;9815;52.334;20.890;2023-04-01T16:30:46;9.20;;;4.53;;
19358;SDS011;9815;52.334;20.890;2023-04-01T16:33:23;7.83;;;4.83;;
19358;SDS011;9815;52.334;20.890;2023-04-01T16:35:59;9.57;;;4.93;;
19358;SDS011;9815;52.334;20.890;2023-04-01T16:38:38;13.93;;;6.57;;
19358;SDS011;9815;52.334;20.890;2023-04-01T16:41:16;14.00;;;7.63;;
19358;SDS011;9815;52.334;20.890;2023-04-01T16:43:48;11.67;;;6.90;;
19358;SDS011;9815;52.334;20.890;2023-04-01T16:46:28;12.10;;;7.13;;
19358;SDS011;9815;52.334;20.890;2023-04-01T16:49:03;14.80;;;8.43;;
19358;SDS011;9815;52.334;20.890;2023-04-01T16:51:45;12.67;;;7.00;;
19358;SDS011;9815;52.334;20.890;2023-04-01T16:54:26;15.37;;;8.57;;
19358;SDS011;9815;52.334;20.890;2023-04-01T16:57:03;16.53;;;8.40;;
19358;SDS011;9815;52.334;20.890;2023-04-01T16:59:45;16.30;;;8.53;;
19358;SDS011;9815;52.334;20.890;2023-04-01T17:02:22;11.90;;;7.07;;